createdAt,value
2019-02-21T00:01:37.698Z,101835.19
2019-02-21T00:04:11.076Z,101839.02
2019-02-21T00:06:44.350Z,101841.91
2019-02-21T00:09:17.656Z,101840.78
2019-02-21T00:11:50.942Z,101846.77
2019-02-21T00:14:24.235Z,101842.77
2019-02-21T00:16:59.084Z,101848.05
2019-02-21T00:19:32.376Z,101850.73
2019-02-21T00:22:05.664Z,101847.79
2019-02-21T00:24:40.117Z,101847.95
2019-02-21T00:27:13.377Z,101844.17
2019-02-21T00:29:46.673Z,101845.09
2019-02-21T00:32:22.625Z,101847.22
2019-02-21T00:34:55.930Z,101845.12
2019-02-21T00:37:29.198Z,101844.09
2019-02-21T00:40:02.496Z,101842.70
2019-02-21T00:42:35.802Z,101850.86
2019-02-21T00:45:09.170Z,101844.39
2019-02-21T00:47:42.457Z,101843.05
2019-02-21T00:50:15.762Z,101844.25
2019-02-21T00:52:49.049Z,101850.27
2019-02-21T00:55:22.358Z,101850.21
2019-02-21T00:57:55.646Z,101855.19
2019-02-21T01:00:29.016Z,101854.45
2019-02-21T01:03:03.940Z,101855.80
2019-02-21T01:05:37.231Z,101857.80
2019-02-21T01:08:10.567Z,101860.67
2019-02-21T01:10:43.870Z,101857.94
2019-02-21T01:13:18.187Z,101867.23
2019-02-21T01:15:51.488Z,101862.11
2019-02-21T01:18:24.765Z,101858.58
2019-02-21T01:20:59.810Z,101863.11
2019-02-21T01:23:49.186Z,101858.38
2019-02-21T01:26:22.496Z,101856.55
2019-02-21T01:28:57.305Z,101854.65
2019-02-21T01:31:32.115Z,101856.83
2019-02-21T01:34:05.477Z,101860.57
2019-02-21T01:36:41.588Z,101854.69
2019-02-21T01:39:14.868Z,101859.83
2019-02-21T01:41:48.144Z,101856.74
2019-02-21T01:47:02.441Z,101863.09
2019-02-21T01:49:37.097Z,101865.88
2019-02-21T01:52:14.082Z,101870.87
2019-02-21T01:54:48.540Z,101852.26
2019-02-21T01:57:30.611Z,101862.76
2019-02-21T02:00:05.734Z,101857.98
2019-02-21T02:02:41.351Z,101853.80
2019-02-21T02:05:14.618Z,101858.24
2019-02-21T02:07:47.915Z,101863.07
2019-02-21T02:10:21.188Z,101863.26
2019-02-21T02:12:54.474Z,101869.27
2019-02-21T02:15:29.310Z,101870.16
2019-02-21T02:18:02.595Z,101868.10
2019-02-21T02:20:35.893Z,101869.34
2019-02-21T02:23:09.163Z,101865.87
2019-02-21T02:25:42.453Z,101862.45
2019-02-21T02:28:15.724Z,101868.70
2019-02-21T02:30:48.850Z,101863.17
2019-02-21T02:33:22.130Z,101867.51
2019-02-21T02:35:55.419Z,101868.00
2019-02-21T02:38:28.700Z,101867.11
2019-02-21T02:41:02.002Z,101868.17
2019-02-21T02:43:35.280Z,101859.11
2019-02-21T02:46:08.574Z,101865.05
2019-02-21T02:48:41.859Z,101869.74
2019-02-21T02:51:15.176Z,101869.42
2019-02-21T02:53:48.486Z,101865.46
2019-02-21T02:56:21.794Z,101865.28
2019-02-21T02:58:55.081Z,101868.05
2019-02-21T03:01:34.720Z,101866.93
2019-02-21T03:04:03.483Z,101870.77
2019-02-21T03:06:36.787Z,101877.02
2019-02-21T03:09:11.398Z,101871.11
2019-02-21T03:11:44.690Z,101870.52
2019-02-21T03:14:18.034Z,101873.56
2019-02-21T03:16:51.319Z,101881.60
2019-02-21T03:19:24.601Z,101886.20
2019-02-21T03:21:57.893Z,101893.38
2019-02-21T03:24:31.169Z,101893.63
2019-02-21T03:27:04.473Z,101890.95
2019-02-21T03:29:39.289Z,101897.52
2019-02-21T03:32:13.151Z,101899.59
2019-02-21T03:34:46.451Z,101899.95
2019-02-21T03:37:19.753Z,101901.70
2019-02-21T03:39:53.019Z,101903.56
2019-02-21T03:42:26.313Z,101903.56
2019-02-21T03:45:00.365Z,101895.05
2019-02-21T03:47:33.639Z,101899.40
2019-02-21T03:50:09.424Z,101903.77
2019-02-21T03:52:42.713Z,101907.83
2019-02-21T03:55:16.654Z,101914.40
2019-02-21T03:57:50.045Z,101916.62
2019-02-21T04:00:23.882Z,101916.99
2019-02-21T04:02:57.257Z,101920.08
2019-02-21T04:05:30.554Z,101914.30
2019-02-21T04:08:03.917Z,101915.44
2019-02-21T04:10:38.557Z,101914.98
2019-02-21T04:13:14.925Z,101915.59
2019-02-21T04:15:46.866Z,101910.22
2019-02-21T04:18:20.713Z,101906.06
2019-02-21T04:20:55.032Z,101908.73
2019-02-21T04:23:28.339Z,101904.89
2019-02-21T04:26:01.630Z,101913.89
2019-02-21T04:28:34.940Z,101910.98
2019-02-21T04:31:08.232Z,101915.45
2019-02-21T04:33:41.549Z,101909.89
2019-02-21T04:36:14.811Z,101912.36
2019-02-21T04:38:49.775Z,101911.06
2019-02-21T04:41:23.060Z,101910.86
2019-02-21T04:43:56.824Z,101907.97
2019-02-21T04:46:30.108Z,101905.00
2019-02-21T04:49:03.466Z,101908.27
2019-02-21T04:51:36.767Z,101901.36
2019-02-21T04:54:10.074Z,101910.97
2019-02-21T04:56:43.362Z,101910.20
2019-02-21T04:59:16.662Z,101906.73
2019-02-21T05:01:49.938Z,101894.97
2019-02-21T05:04:23.242Z,101886.85
2019-02-21T05:06:56.511Z,101886.11
2019-02-21T05:09:29.805Z,101890.66
2019-02-21T05:12:03.096Z,101892.22
2019-02-21T05:14:37.918Z,101899.11
2019-02-21T05:17:11.204Z,101898.88
2019-02-21T05:19:44.497Z,101897.22
2019-02-21T05:22:17.785Z,101887.94
2019-02-21T05:24:51.078Z,101887.13
2019-02-21T05:27:25.988Z,101890.31
2019-02-21T05:29:59.295Z,101880.41
2019-02-21T05:32:41.079Z,101882.72
2019-02-21T05:35:19.121Z,101884.50
2019-02-21T05:38:10.699Z,101885.33
2019-02-21T05:40:57.604Z,101884.59
2019-02-21T05:43:37.166Z,101875.38
2019-02-21T05:46:20.896Z,101884.03
2019-02-21T05:49:07.589Z,101890.97
2019-02-21T05:51:45.232Z,101887.14
2019-02-21T05:54:26.321Z,101890.78
2019-02-21T05:57:03.845Z,101890.03
2019-02-21T05:59:54.911Z,101886.33
2019-02-21T06:02:32.657Z,101886.95
2019-02-21T06:05:13.314Z,101887.06
2019-02-21T06:08:04.647Z,101894.91
2019-02-21T06:10:39.594Z,101896.67
2019-02-21T06:13:20.321Z,101896.95
2019-02-21T06:16:11.437Z,101905.19
2019-02-21T06:18:58.522Z,101903.81
2019-02-21T06:21:33.476Z,101905.48
2019-02-21T06:24:08.433Z,101910.06
2019-02-21T06:26:43.348Z,101917.48
2019-02-21T06:29:18.280Z,101914.04
2019-02-21T06:31:52.087Z,101915.13
2019-02-21T06:34:25.358Z,101925.71
2019-02-21T06:37:00.327Z,101917.79
2019-02-21T06:39:33.596Z,101917.06
2019-02-21T06:42:06.888Z,101919.48
2019-02-21T06:44:40.213Z,101919.05
2019-02-21T06:47:13.483Z,101919.99
2019-02-21T06:49:46.798Z,101920.22
2019-02-21T06:52:20.087Z,101918.16
2019-02-21T06:54:53.399Z,101929.48
2019-02-21T06:57:26.678Z,101929.30
2019-02-21T07:00:00.797Z,101919.08
2019-02-21T07:02:34.137Z,101928.36
2019-02-21T07:05:07.494Z,101925.87
2019-02-21T07:07:40.861Z,101927.34
2019-02-21T07:10:14.244Z,101935.14
2019-02-21T07:12:47.495Z,101936.95
2019-02-21T07:15:20.790Z,101930.22
2019-02-21T07:17:54.090Z,101931.25
2019-02-21T07:20:27.392Z,101918.37
2019-02-21T07:23:02.309Z,101912.48
2019-02-21T07:25:37.258Z,101928.61
2019-02-21T07:28:12.482Z,101945.05
2019-02-21T07:30:45.855Z,101942.16
2019-02-21T07:33:27.823Z,101936.38
2019-02-21T07:35:54.159Z,101941.50
2019-02-21T07:38:27.460Z,101952.80
2019-02-21T07:41:00.922Z,101953.34
2019-02-21T07:43:34.311Z,101973.78
2019-02-21T07:46:07.631Z,101968.84
2019-02-21T07:48:40.965Z,101965.03
2019-02-21T07:51:14.280Z,101971.06
2019-02-21T07:53:47.553Z,101973.61
2019-02-21T07:56:20.959Z,101974.17
2019-02-21T07:58:54.225Z,101964.52
2019-02-21T08:01:27.525Z,101967.27
2019-02-21T08:04:00.810Z,101975.48
2019-02-21T08:06:34.133Z,101969.09
2019-02-21T08:09:08.975Z,101969.27
2019-02-21T08:11:42.289Z,101972.61
2019-02-21T08:14:16.278Z,101975.80
2019-02-21T08:16:49.646Z,101979.41
2019-02-21T08:19:22.929Z,101983.44
2019-02-21T08:21:56.730Z,101995.34
2019-02-21T08:24:30.026Z,101991.64
2019-02-21T08:27:03.328Z,101989.59
2019-02-21T08:29:36.593Z,101990.63
2019-02-21T08:32:11.365Z,101982.75
2019-02-21T08:34:48.255Z,101983.33
2019-02-21T08:37:21.630Z,101986.70
2019-02-21T08:39:54.907Z,101982.75
2019-02-21T08:42:28.199Z,101995.27
2019-02-21T08:45:01.513Z,101995.89
2019-02-21T08:47:34.805Z,101993.98
2019-02-21T08:50:08.113Z,101998.43
2019-02-21T08:52:41.424Z,102001.58
2019-02-21T08:55:14.807Z,101998.67
2019-02-21T08:57:48.104Z,102010.33
2019-02-21T09:00:21.384Z,102005.53
2019-02-21T09:02:56.284Z,102000.11
2019-02-21T09:05:29.553Z,102007.19
2019-02-21T09:08:04.443Z,102010.33
2019-02-21T09:10:37.722Z,102005.50
2019-02-21T09:13:11.054Z,102010.36
2019-02-21T09:15:46.423Z,102005.70
2019-02-21T09:18:19.432Z,102009.11
2019-02-21T09:20:52.723Z,102010.41
2019-02-21T09:23:26.026Z,102012.72
2019-02-21T09:25:59.331Z,102006.89
2019-02-21T09:28:32.631Z,102009.73
2019-02-21T09:31:05.898Z,102002.54
2019-02-21T09:33:39.199Z,102009.18
2019-02-21T09:36:12.556Z,102002.59
2019-02-21T09:38:45.854Z,102001.03
2019-02-21T09:41:19.158Z,102002.91
2019-02-21T09:43:52.477Z,102012.66
2019-02-21T09:46:25.766Z,102014.38
2019-02-21T09:48:59.129Z,102007.88
2019-02-21T09:51:36.529Z,102006.95
2019-02-21T09:54:09.078Z,102010.09
2019-02-21T09:56:52.298Z,102020.03
2019-02-21T09:59:17.420Z,102016.02
2019-02-21T10:01:50.691Z,102020.92
2019-02-21T10:04:31.926Z,102020.09
2019-02-21T10:06:59.026Z,102022.20
2019-02-21T10:09:32.359Z,102012.84
2019-02-21T10:12:05.721Z,102020.36
2019-02-21T10:14:39.030Z,102016.55
2019-02-21T10:17:12.319Z,102015.78
2019-02-21T10:19:45.632Z,102015.40
2019-02-21T10:22:18.946Z,102016.02
2019-02-21T10:24:52.288Z,102006.86
2019-02-21T10:27:25.653Z,102007.81
2019-02-21T10:29:58.932Z,102008.28
2019-02-21T10:32:32.238Z,102006.87
2019-02-21T10:35:06.586Z,102015.20
2019-02-21T10:37:39.858Z,102022.02
2019-02-21T10:40:15.038Z,102018.16
2019-02-21T10:42:48.597Z,102018.65
2019-02-21T10:45:22.818Z,102014.16
2019-02-21T10:47:56.108Z,102010.13
2019-02-21T10:50:29.395Z,102001.70
2019-02-21T10:53:02.708Z,101999.22
2019-02-21T10:55:35.954Z,102005.59
2019-02-21T10:58:09.251Z,102005.30
2019-02-21T11:00:42.668Z,102000.77
2019-02-21T11:03:15.980Z,102000.45
2019-02-21T11:05:49.271Z,102004.83
2019-02-21T11:08:22.560Z,102000.80
2019-02-21T11:10:55.833Z,102005.55
2019-02-21T11:13:29.137Z,102008.08
2019-02-21T11:16:02.408Z,102007.98
2019-02-21T11:18:35.703Z,102000.26
2019-02-21T11:21:08.998Z,101997.63
2019-02-21T11:23:42.345Z,101986.20
2019-02-21T11:26:15.634Z,101994.62
2019-02-21T11:28:48.949Z,101987.94
2019-02-21T11:31:22.225Z,101992.09
2019-02-21T11:33:55.507Z,101986.86
2019-02-21T11:36:28.782Z,101983.53
2019-02-21T11:39:02.108Z,101980.23
2019-02-21T11:41:35.389Z,101979.76
2019-02-21T11:44:08.667Z,101979.42
2019-02-21T11:46:41.939Z,101977.13
2019-02-21T11:49:15.246Z,101972.48
2019-02-21T11:51:48.525Z,101972.59
2019-02-21T11:54:26.969Z,101974.78
2019-02-21T11:56:56.853Z,101968.49
2019-02-21T11:59:30.147Z,101969.52
2019-02-21T12:02:03.445Z,101973.95
2019-02-21T12:04:36.764Z,101973.88
2019-02-21T12:07:10.042Z,101969.09
2019-02-21T12:09:43.336Z,101962.90
2019-02-21T12:12:16.673Z,101967.59
2019-02-21T12:14:49.990Z,101964.16
2019-02-21T12:17:23.274Z,101960.30
2019-02-21T12:19:56.616Z,101966.44
2019-02-21T12:22:29.899Z,101966.48
2019-02-21T12:25:03.195Z,101959.02
2019-02-21T12:27:36.468Z,101962.01
2019-02-21T12:30:17.980Z,101962.04
2019-02-21T12:32:51.256Z,101952.42
2019-02-21T12:35:29.535Z,101955.53
2019-02-21T12:37:59.637Z,101945.86
2019-02-21T12:40:32.935Z,101949.75
2019-02-21T12:43:06.219Z,101949.77
2019-02-21T12:45:39.568Z,101941.47
2019-02-21T12:48:12.853Z,101928.33
2019-02-21T12:50:46.146Z,101933.17
2019-02-21T12:53:19.435Z,101920.84
2019-02-21T12:55:52.852Z,101920.26
2019-02-21T12:58:26.133Z,101919.76
2019-02-21T13:00:59.699Z,101911.59
2019-02-21T13:03:32.982Z,101912.02
2019-02-21T13:06:06.325Z,101905.80
2019-02-21T13:08:39.743Z,101914.13
2019-02-21T13:11:13.050Z,101910.70
2019-02-21T13:13:46.331Z,101907.26
2019-02-21T13:16:19.626Z,101901.16
2019-02-21T13:18:53.324Z,101910.34
2019-02-21T13:21:26.633Z,101910.34
2019-02-21T13:23:59.953Z,101906.28
2019-02-21T13:26:33.258Z,101892.27
2019-02-21T13:29:06.549Z,101896.19
2019-02-21T13:31:39.868Z,101901.70
2019-02-21T13:34:13.159Z,101895.84
2019-02-21T13:36:46.561Z,101901.56
2019-02-21T13:39:20.039Z,101901.56
2019-02-21T13:41:53.390Z,101899.44
2019-02-21T13:44:26.693Z,101902.38
2019-02-21T13:46:59.957Z,101912.88
2019-02-21T13:49:34.799Z,101910.42
2019-02-21T13:52:08.114Z,101917.58
2019-02-21T13:54:41.411Z,101923.42
2019-02-21T13:57:14.708Z,101923.42
2019-02-21T13:59:48.003Z,101914.63
2019-02-21T14:02:21.320Z,101914.63
2019-02-21T14:04:54.649Z,101913.73
2019-02-21T14:07:27.981Z,101910.71
2019-02-21T14:10:01.289Z,101910.69
2019-02-21T14:12:34.585Z,101904.28
2019-02-21T14:15:11.345Z,101905.17
2019-02-21T14:17:46.549Z,101897.27
2019-02-21T14:20:19.671Z,101893.12
2019-02-21T14:22:52.978Z,101893.12
2019-02-21T14:25:28.446Z,101885.86
2019-02-21T14:28:01.795Z,101878.11
2019-02-21T14:30:35.194Z,101876.82
2019-02-21T14:33:08.496Z,101874.56
2019-02-21T14:35:41.882Z,101883.91
2019-02-21T14:38:15.175Z,101874.10
2019-02-21T14:40:48.485Z,101873.71
2019-02-21T14:43:21.787Z,101880.50
2019-02-21T14:45:55.101Z,101874.34
2019-02-21T14:48:28.413Z,101863.00
2019-02-21T14:51:01.715Z,101862.80
2019-02-21T14:53:35.028Z,101866.55
2019-02-21T14:56:08.682Z,101867.13
2019-02-21T14:58:41.949Z,101863.23
2019-02-21T15:01:15.273Z,101856.58
2019-02-21T15:03:48.534Z,101869.22
2019-02-21T15:06:26.972Z,101863.40
2019-02-21T15:08:58.565Z,101881.50
2019-02-21T15:11:31.892Z,101881.59
2019-02-21T15:14:05.259Z,101873.41
2019-02-21T15:16:38.553Z,101877.77
2019-02-21T15:19:11.838Z,101878.38
2019-02-21T15:21:45.161Z,101882.88
2019-02-21T15:24:20.095Z,101888.39
2019-02-21T15:26:53.450Z,101885.36
2019-02-21T15:29:26.759Z,101883.56
2019-02-21T15:32:10.268Z,101881.83
2019-02-21T15:34:35.092Z,101878.45
2019-02-21T15:37:08.389Z,101875.86
2019-02-21T15:39:42.970Z,101888.41
2019-02-21T15:42:16.399Z,101881.13
2019-02-21T15:44:49.692Z,101883.37
2019-02-21T15:47:25.684Z,101887.48
2019-02-21T15:49:58.966Z,101886.47
2019-02-21T15:52:32.279Z,101886.18
2019-02-21T15:55:12.413Z,101889.27
2019-02-21T15:57:44.036Z,101894.55
2019-02-21T16:00:19.064Z,101895.47
2019-02-21T16:02:52.455Z,101901.14
2019-02-21T16:05:25.857Z,101896.31
2019-02-21T16:07:59.156Z,101882.28
2019-02-21T16:10:32.456Z,101887.98
2019-02-21T16:13:05.947Z,101893.69
2019-02-21T16:15:39.463Z,101897.22
2019-02-21T16:18:14.021Z,101899.41
2019-02-21T16:20:47.557Z,101897.66
2019-02-21T16:23:20.851Z,101899.39
2019-02-21T16:25:54.179Z,101897.64
2019-02-21T16:28:27.479Z,101895.44
2019-02-21T16:31:00.907Z,101898.51
2019-02-21T16:33:34.335Z,101901.58
2019-02-21T16:36:07.670Z,101893.69
2019-02-21T16:38:40.985Z,101899.34
2019-02-21T16:41:14.299Z,101900.66
2019-02-21T16:43:47.644Z,101910.72
2019-02-21T16:46:21.100Z,101916.87
2019-02-21T16:48:54.415Z,101916.84
2019-02-21T16:51:29.250Z,101912.44
2019-02-21T16:54:02.567Z,101921.62
2019-02-21T16:56:35.871Z,101922.92
2019-02-21T16:59:09.212Z,101921.61
2019-02-21T17:01:44.044Z,101927.76
2019-02-21T17:04:17.357Z,101934.76
2019-02-21T17:06:50.664Z,101934.31
2019-02-21T17:09:23.979Z,101945.23
2019-02-21T17:11:58.057Z,101951.31
2019-02-21T17:14:31.353Z,101952.63
2019-02-21T17:17:05.542Z,101953.03
2019-02-21T17:19:38.961Z,101955.64
2019-02-21T17:22:12.309Z,101959.06
2019-02-21T17:24:45.646Z,101959.05
2019-02-21T17:27:19.038Z,101955.61
2019-02-21T17:29:52.367Z,101955.17
2019-02-21T17:32:25.652Z,101957.80
2019-02-21T17:34:58.975Z,101956.50
2019-02-21T17:37:32.304Z,101965.66
2019-02-21T17:40:08.714Z,101966.94
2019-02-21T17:42:42.024Z,101969.03
2019-02-21T17:45:17.025Z,101968.61
2019-02-21T17:47:50.395Z,101967.66
2019-02-21T17:50:23.711Z,101979.85
2019-02-21T17:52:57.102Z,101981.59
2019-02-21T17:55:30.474Z,101994.75
2019-02-21T17:58:03.760Z,101989.42
2019-02-21T18:00:38.764Z,101992.89
2019-02-21T18:03:12.111Z,101995.52
2019-02-21T18:05:45.449Z,101999.41
2019-02-21T18:08:18.763Z,101997.16
2019-02-21T18:10:52.100Z,101997.16
2019-02-21T18:13:25.392Z,101989.80
2019-02-21T18:15:58.682Z,101998.17
2019-02-21T18:18:31.990Z,102004.28
2019-02-21T18:21:05.300Z,102012.15
2019-02-21T18:23:38.607Z,102003.77
2019-02-21T18:26:16.348Z,102005.45
2019-02-21T18:28:49.599Z,102004.47
2019-02-21T18:31:24.541Z,102009.61
2019-02-21T18:33:57.910Z,102006.42
2019-02-21T18:36:31.175Z,101991.53
2019-02-21T18:39:05.803Z,101991.62
2019-02-21T18:41:39.669Z,101999.13
2019-02-21T18:44:12.981Z,102003.06
2019-02-21T18:46:46.287Z,102007.38
2019-02-21T18:49:19.671Z,102003.38
2019-02-21T18:51:52.977Z,102010.30
2019-02-21T18:54:26.321Z,102011.12
2019-02-21T18:56:59.624Z,102010.61
2019-02-21T18:59:32.957Z,102009.72
2019-02-21T19:02:06.329Z,102011.91
2019-02-21T19:04:39.627Z,102016.20
2019-02-21T19:07:12.943Z,102020.53
2019-02-21T19:09:46.739Z,102016.55
2019-02-21T19:12:20.153Z,102012.67
2019-02-21T19:14:53.470Z,102001.30
2019-02-21T19:17:26.841Z,102003.50
2019-02-21T19:20:00.297Z,102000.88
2019-02-21T19:22:33.536Z,101999.09
2019-02-21T19:25:09.080Z,101999.99
2019-02-21T19:27:42.466Z,102006.61
2019-02-21T19:30:31.628Z,102003.93
2019-02-21T19:33:05.025Z,102001.30
2019-02-21T19:35:38.385Z,102007.38
2019-02-21T19:38:11.681Z,102013.88
2019-02-21T19:40:45.009Z,102013.45
2019-02-21T19:43:18.371Z,102009.94
2019-02-21T19:45:51.774Z,102016.02
2019-02-21T19:48:25.110Z,102018.63
2019-02-21T19:50:58.429Z,102021.67
2019-02-21T19:53:31.714Z,102020.78
2019-02-21T19:56:05.116Z,102018.14
2019-02-21T19:58:38.395Z,102022.44
2019-02-21T20:01:11.806Z,102021.53
2019-02-21T20:03:45.085Z,102028.03
2019-02-21T20:06:19.525Z,102026.29
2019-02-21T20:08:52.787Z,102029.41
2019-02-21T20:11:26.247Z,102029.39
2019-02-21T20:13:59.635Z,102030.27
2019-02-21T20:16:32.997Z,102042.02
2019-02-21T20:19:06.312Z,102041.53
2019-02-21T20:21:41.215Z,102053.70
2019-02-21T20:24:14.589Z,102044.14
2019-02-21T20:26:48.863Z,102043.19
2019-02-21T20:29:22.237Z,102044.47
2019-02-21T20:31:55.554Z,102050.98
2019-02-21T20:34:28.867Z,102051.05
2019-02-21T20:37:02.256Z,102050.14
2019-02-21T20:39:37.058Z,102048.33
2019-02-21T20:42:10.425Z,102051.30
2019-02-21T20:44:43.719Z,102050.05
2019-02-21T20:47:17.095Z,102054.27
2019-02-21T20:49:50.476Z,102053.58
2019-02-21T20:52:23.760Z,102057.03
2019-02-21T20:54:57.161Z,102063.87
2019-02-21T20:57:30.494Z,102070.77
2019-02-21T21:00:05.510Z,102070.73
2019-02-21T21:02:38.869Z,102073.36
2019-02-21T21:05:12.187Z,102073.02
2019-02-21T21:07:45.457Z,102074.62
2019-02-21T21:10:19.054Z,102075.98
2019-02-21T21:12:52.385Z,102083.84
2019-02-21T21:15:25.760Z,102085.59
2019-02-21T21:17:59.064Z,102093.84
2019-02-21T21:20:34.409Z,102096.94
2019-02-21T21:23:07.687Z,102097.08
2019-02-21T21:25:40.991Z,102090.87
2019-02-21T21:28:14.285Z,102092.95
2019-02-21T21:30:47.683Z,102093.34
2019-02-21T21:33:21.104Z,102102.85
2019-02-21T21:35:54.428Z,102103.70
2019-02-21T21:38:27.723Z,102102.79
2019-02-21T21:41:01.103Z,102112.36
2019-02-21T21:43:34.391Z,102100.64
2019-02-21T21:46:07.712Z,102105.08
2019-02-21T21:48:40.992Z,102107.69
2019-02-21T21:51:14.300Z,102106.85
2019-02-21T21:53:47.612Z,102112.09
2019-02-21T21:56:21.711Z,102113.39
2019-02-21T21:58:55.042Z,102116.41
2019-02-21T22:01:28.357Z,102118.16
2019-02-21T22:04:01.645Z,102122.08
2019-02-21T22:06:34.945Z,102131.59
2019-02-21T22:09:08.222Z,102127.23
2019-02-21T22:11:41.615Z,102124.11
2019-02-21T22:14:14.913Z,102130.69
2019-02-21T22:16:48.265Z,102128.89
2019-02-21T22:19:21.574Z,102130.19
2019-02-21T22:21:54.869Z,102132.40
2019-02-21T22:24:28.192Z,102134.20
2019-02-21T22:27:01.622Z,102133.14
2019-02-21T22:29:34.923Z,102136.58
2019-02-21T22:32:08.215Z,102133.55
2019-02-21T22:34:41.499Z,102133.93
2019-02-21T22:37:14.814Z,102134.36
2019-02-21T22:39:48.114Z,102141.32
2019-02-21T22:42:21.393Z,102142.63
2019-02-21T22:44:54.696Z,102150.95
2019-02-21T22:47:27.970Z,102148.27
2019-02-21T22:50:01.260Z,102149.92
2019-02-21T22:52:34.551Z,102148.59
2019-02-21T22:55:10.104Z,102153.84
2019-02-21T22:57:43.643Z,102159.91
2019-02-21T23:00:36.700Z,102169.63
2019-02-21T23:03:11.443Z,102170.04
2019-02-21T23:05:57.175Z,102165.20
2019-02-21T23:08:42.739Z,102166.05
2019-02-21T23:11:16.105Z,102162.09
2019-02-21T23:13:49.784Z,102159.45
2019-02-21T23:16:23.069Z,102166.42
2019-02-21T23:18:56.370Z,102166.33
2019-02-21T23:21:29.681Z,102167.97
2019-02-21T23:24:03.060Z,102167.02
2019-02-21T23:26:36.341Z,102165.24
2019-02-21T23:29:09.689Z,102163.05
2019-02-21T23:31:42.991Z,102160.88
2019-02-21T23:34:17.968Z,102150.42
2019-02-21T23:36:51.273Z,102145.61
2019-02-21T23:39:24.539Z,102140.86
2019-02-21T23:41:57.849Z,102152.16
2019-02-21T23:44:31.118Z,102146.03
2019-02-21T23:47:04.431Z,102140.78
2019-02-21T23:49:37.736Z,102135.16
2019-02-21T23:52:11.060Z,102148.33
2019-02-21T23:54:44.331Z,102148.34
2019-02-21T23:57:17.628Z,102156.20
2019-02-21T23:59:50.906Z,102156.18
